createdAt,value
2022-10-20T00:02:13.556Z,13.18
2022-10-20T00:05:00.512Z,13.15
2022-10-20T00:07:47.545Z,13.23
2022-10-20T00:10:34.521Z,13.28
2022-10-20T00:13:14.903Z,13.44
2022-10-20T00:16:05.504Z,13.54
2022-10-20T00:18:46.055Z,13.63
2022-10-20T00:21:35.529Z,13.74
2022-10-20T00:24:15.911Z,13.73
2022-10-20T00:27:02.504Z,13.81
2022-10-20T00:29:42.886Z,13.96
2022-10-20T00:32:29.516Z,14.03
2022-10-20T00:35:09.905Z,13.99
2022-10-20T00:37:56.499Z,13.97
2022-10-20T00:40:43.521Z,14.04
2022-10-20T00:43:31.487Z,13.98
2022-10-20T00:46:21.564Z,14.01
2022-10-20T00:49:09.471Z,14.06
2022-10-20T00:52:01.495Z,14.24
2022-10-20T00:54:41.616Z,14.16
2022-10-20T00:57:28.469Z,14.22
2022-10-20T01:00:08.984Z,14.25
2022-10-20T01:02:57.467Z,14.04
2022-10-20T01:05:37.589Z,13.97
2022-10-20T01:08:24.594Z,13.87
2022-10-20T01:11:35.482Z,13.69
2022-10-20T01:14:28.464Z,13.51
2022-10-20T01:17:25.561Z,13.33
2022-10-20T01:20:32.405Z,13.01
2022-10-20T01:23:47.463Z,12.80
2022-10-20T01:26:49.453Z,12.64
2022-10-20T01:29:49.513Z,12.63
2022-10-20T01:32:45.417Z,12.33
2022-10-20T01:36:13.403Z,12.23
2022-10-20T01:39:04.016Z,12.22
2022-10-20T01:42:00.392Z,12.19
2022-10-20T01:44:42.453Z,12.22
2022-10-20T01:47:30.371Z,12.20
2022-10-20T01:50:12.797Z,12.09
2022-10-20T01:52:59.417Z,12.01
2022-10-20T01:55:40.772Z,11.92
2022-10-20T01:58:36.388Z,11.89
2022-10-20T02:01:38.435Z,11.82
2022-10-20T02:04:26.402Z,11.74
2022-10-20T02:07:18.263Z,11.72
2022-10-20T02:10:09.391Z,11.64
2022-10-20T02:13:00.356Z,11.47
2022-10-20T02:15:45.493Z,11.48
2022-10-20T02:18:40.389Z,11.42
2022-10-20T02:21:20.763Z,11.37
2022-10-20T02:24:11.369Z,11.36
2022-10-20T02:26:51.437Z,11.43
2022-10-20T02:29:45.393Z,11.50
2022-10-20T02:32:25.449Z,11.63
2022-10-20T02:35:16.362Z,11.55
2022-10-20T02:37:57.471Z,11.48
2022-10-20T02:40:44.380Z,11.38
2022-10-20T02:43:24.433Z,11.30
2022-10-20T02:46:11.332Z,11.28
2022-10-20T02:48:51.417Z,11.22
2022-10-20T02:51:38.300Z,11.15
2022-10-20T02:54:18.398Z,11.17
2022-10-20T02:57:05.336Z,11.15
2022-10-20T02:59:45.419Z,11.19
2022-10-20T03:02:32.318Z,11.30
2022-10-20T03:25:55.252Z,11.04
2022-10-20T03:28:42.268Z,11.18
2022-10-20T03:31:22.390Z,11.27
2022-10-20T03:34:09.275Z,11.41
2022-10-20T03:36:49.366Z,11.47
2022-10-20T03:39:36.232Z,11.52
2022-10-20T03:42:23.246Z,11.68
2022-10-20T03:45:13.752Z,11.62
2022-10-20T03:47:56.363Z,11.65
2022-10-20T03:50:49.235Z,11.65
2022-10-20T03:53:36.199Z,11.68
2022-10-20T03:56:20.320Z,11.79
2022-10-20T03:59:00.268Z,11.82
2022-10-20T04:01:41.353Z,11.74
2022-10-20T04:04:28.180Z,11.70
2022-10-20T04:07:08.331Z,11.87
2022-10-20T04:09:55.232Z,11.84
2022-10-20T04:12:42.223Z,11.84
2022-10-20T04:15:29.200Z,12.01
2022-10-20T04:18:16.208Z,12.09
2022-10-20T04:21:03.212Z,12.08
2022-10-20T04:23:43.313Z,12.01
2022-10-20T04:26:30.169Z,12.11
2022-10-20T04:29:17.199Z,11.92
2022-10-20T04:32:04.191Z,12.00
2022-10-20T04:34:51.155Z,11.95
2022-10-20T04:37:31.613Z,12.03
2022-10-20T04:40:18.196Z,11.96
2022-10-20T04:43:01.943Z,12.15
2022-10-20T04:45:50.120Z,12.20
2022-10-20T04:48:37.231Z,12.30
2022-10-20T04:51:19.260Z,12.39
2022-10-20T04:57:01.114Z,12.47
2022-10-20T04:59:41.558Z,12.66
2022-10-20T05:02:28.138Z,12.81
2022-10-20T05:05:09.080Z,12.87
2022-10-20T05:07:56.156Z,12.77
2022-10-20T05:10:43.145Z,12.81
2022-10-20T05:13:30.121Z,12.81
2022-10-20T05:16:18.143Z,12.77
2022-10-20T05:19:05.160Z,12.84
2022-10-20T05:21:45.724Z,12.95
2022-10-20T05:24:32.122Z,13.15
2022-10-20T05:27:12.506Z,13.19
2022-10-20T05:29:59.109Z,13.23
2022-10-20T05:32:39.454Z,13.23
2022-10-20T05:35:26.134Z,13.33
2022-10-20T05:38:13.141Z,13.41
2022-10-20T05:41:00.111Z,13.45
2022-10-20T05:43:47.103Z,13.61
2022-10-20T05:46:34.066Z,13.82
2022-10-20T05:49:17.502Z,14.01
2022-10-20T05:52:04.067Z,14.04
2022-10-20T05:54:44.475Z,13.93
2022-10-20T05:57:31.112Z,13.81
2022-10-20T06:00:12.030Z,13.70
2022-10-20T06:02:59.066Z,13.86
2022-10-20T06:05:46.089Z,13.90
2022-10-20T06:08:26.204Z,13.73
2022-10-20T06:11:16.114Z,13.76
2022-10-20T06:13:56.162Z,13.67
2022-10-20T06:16:43.024Z,13.62
2022-10-20T06:19:23.271Z,13.62
2022-10-20T06:22:10.072Z,13.57
2022-10-20T06:25:04.041Z,13.50
2022-10-20T06:27:51.051Z,13.59
2022-10-20T06:30:38.061Z,13.74
2022-10-20T06:33:18.421Z,13.81
2022-10-20T06:36:05.036Z,13.98
2022-10-20T06:38:46.067Z,13.83
2022-10-20T06:41:33.026Z,13.88
2022-10-20T06:44:17.957Z,13.85
2022-10-20T06:47:05.030Z,13.85
2022-10-20T06:49:45.445Z,13.85
2022-10-20T06:52:32.003Z,13.80
2022-10-20T06:55:12.413Z,13.69
2022-10-20T06:57:59.011Z,13.58
2022-10-20T07:00:46.006Z,13.49
2022-10-20T07:03:33.029Z,13.38
2022-10-20T07:06:19.329Z,13.24
2022-10-20T07:09:08.109Z,13.16
2022-10-20T07:11:58.984Z,13.16
2022-10-20T07:14:39.063Z,13.07
2022-10-20T07:17:26.003Z,13.07
2022-10-20T07:20:12.937Z,13.06
2022-10-20T07:22:53.308Z,13.12
2022-10-20T07:25:39.960Z,13.00
2022-10-20T07:28:27.919Z,12.93
2022-10-20T07:31:20.983Z,12.87
2022-10-20T07:34:13.587Z,12.81
2022-10-20T07:37:09.978Z,12.83
2022-10-20T07:39:56.932Z,12.80
2022-10-20T07:42:43.957Z,12.90
2022-10-20T07:45:30.962Z,12.94
2022-10-20T07:48:11.092Z,12.98
2022-10-20T07:50:57.896Z,13.02
2022-10-20T07:53:44.920Z,13.11
2022-10-20T07:56:28.626Z,13.34
2022-10-20T07:59:14.955Z,13.64
2022-10-20T08:01:56.336Z,13.90
2022-10-20T08:04:45.989Z,14.15
2022-10-20T08:07:32.879Z,14.23
2022-10-20T08:10:14.030Z,14.53
2022-10-20T08:13:00.890Z,14.69
2022-10-20T08:15:56.696Z,14.31
2022-10-20T08:18:40.605Z,14.13
2022-10-20T08:21:29.892Z,14.24
2022-10-20T08:24:16.914Z,14.16
2022-10-20T08:27:03.874Z,14.15
2022-10-20T08:29:50.800Z,14.12
2022-10-20T08:32:46.870Z,13.82
2022-10-20T08:35:27.675Z,14.00
2022-10-20T08:38:14.865Z,13.89
2022-10-20T08:41:01.898Z,14.00
2022-10-20T08:43:46.950Z,14.31
2022-10-20T08:46:41.871Z,14.06
2022-10-20T08:49:32.934Z,14.18
2022-10-20T08:52:23.836Z,14.34
2022-10-20T08:55:11.965Z,14.42
2022-10-20T08:57:52.443Z,14.85
2022-10-20T09:00:38.849Z,15.04
2022-10-20T09:03:37.957Z,15.16
2022-10-20T09:06:22.870Z,15.07
2022-10-20T09:09:09.861Z,14.84
2022-10-20T09:11:56.845Z,14.82
2022-10-20T09:14:37.783Z,15.06
2022-10-20T09:17:31.844Z,15.25
2022-10-20T09:20:19.087Z,15.83
2022-10-20T09:23:16.512Z,16.36
2022-10-20T09:26:44.921Z,16.86
2022-10-20T09:29:38.975Z,17.24
2022-10-20T09:32:56.322Z,17.62
2022-10-20T09:35:36.857Z,18.08
2022-10-20T09:38:23.759Z,17.93
2022-10-20T09:41:34.818Z,18.40
2022-10-20T09:44:23.927Z,18.32
2022-10-20T09:47:10.850Z,18.64
2022-10-20T09:49:51.881Z,19.53
2022-10-20T09:52:50.764Z,19.06
2022-10-20T09:55:48.793Z,19.11
2022-10-20T09:58:35.527Z,18.96
2022-10-20T10:01:29.846Z,18.55
2022-10-20T10:04:37.769Z,18.29
2022-10-20T10:07:39.762Z,19.99
2022-10-20T10:10:26.776Z,19.42
2022-10-20T10:13:07.921Z,20.32
2022-10-20T10:15:54.769Z,19.79
2022-10-20T10:18:45.444Z,19.26
2022-10-20T10:21:36.748Z,19.07
2022-10-20T10:25:00.754Z,19.25
2022-10-20T10:28:05.742Z,18.86
2022-10-20T10:30:52.752Z,18.46
2022-10-20T10:33:35.961Z,19.83
2022-10-20T10:36:38.705Z,21.77
2022-10-20T10:39:19.135Z,24.17
2022-10-20T10:42:43.727Z,24.26
2022-10-20T10:45:39.729Z,25.30
2022-10-20T10:48:56.731Z,25.66
2022-10-20T10:51:52.912Z,26.11
2022-10-20T10:54:42.719Z,27.19
2022-10-20T10:57:49.714Z,26.25
2022-10-20T11:00:56.908Z,26.46
2022-10-20T11:04:02.729Z,27.75
2022-10-20T11:06:58.721Z,27.45
2022-10-20T11:09:48.791Z,28.49
2022-10-20T11:13:10.698Z,27.31
2022-10-20T11:16:20.656Z,26.74
2022-10-20T11:19:10.713Z,25.81
2022-10-20T11:22:03.677Z,26.81
2022-10-20T11:25:16.899Z,25.69
2022-10-20T11:27:57.650Z,24.23
2022-10-20T11:30:38.332Z,25.84
2022-10-20T11:33:40.704Z,25.94
2022-10-20T11:36:26.059Z,26.93
2022-10-20T11:39:13.665Z,26.57
2022-10-20T11:42:03.592Z,25.89
2022-10-20T11:44:55.668Z,26.37
2022-10-20T11:47:40.180Z,24.46
2022-10-20T11:50:32.630Z,21.48
2022-10-20T11:54:00.613Z,19.30
2022-10-20T11:57:09.659Z,18.78
2022-10-20T12:03:36.644Z,18.31
2022-10-20T12:06:44.629Z,17.98
2022-10-20T12:10:02.610Z,17.62
2022-10-20T12:13:04.820Z,17.49
2022-10-20T12:16:00.643Z,17.15
2022-10-20T12:19:21.634Z,17.06
2022-10-20T12:22:01.737Z,16.84
2022-10-20T12:25:11.662Z,16.76
2022-10-20T12:27:51.809Z,16.60
2022-10-20T12:30:44.636Z,16.46
2022-10-20T12:33:26.706Z,16.47
2022-10-20T12:36:25.592Z,16.47
2022-10-20T12:39:35.563Z,16.50
2022-10-20T12:42:29.632Z,16.48
2022-10-20T12:45:20.605Z,16.51
2022-10-20T12:48:02.753Z,16.40
2022-10-20T12:50:53.564Z,16.24
2022-10-20T12:53:41.569Z,16.15
2022-10-20T12:56:34.581Z,16.21
2022-10-20T12:59:29.969Z,16.17
2022-10-20T13:02:22.544Z,16.05
2022-10-20T13:05:12.544Z,15.79
2022-10-20T13:08:04.646Z,15.81
2022-10-20T13:10:52.537Z,15.70
2022-10-20T13:16:27.564Z,15.67
2022-10-20T13:19:07.694Z,15.50
2022-10-20T13:21:54.557Z,15.37
2022-10-20T13:24:46.548Z,15.48
2022-10-20T13:27:29.028Z,15.38
2022-10-20T13:30:20.509Z,15.46
2022-10-20T13:37:08.717Z,15.40
2022-10-20T13:40:04.556Z,15.26
2022-10-20T13:43:06.791Z,15.16
2022-10-20T13:45:56.509Z,15.20
2022-10-20T13:49:01.835Z,15.19
2022-10-20T13:51:58.479Z,15.00
2022-10-20T13:54:51.531Z,14.92
2022-10-20T13:57:35.014Z,14.97
2022-10-20T14:00:33.529Z,15.07
2022-10-20T14:03:18.490Z,15.09
2022-10-20T14:06:05.534Z,15.01
2022-10-20T14:08:45.918Z,15.01
2022-10-20T14:11:32.497Z,14.96
2022-10-20T14:14:22.628Z,14.94
2022-10-20T14:17:08.497Z,14.88
2022-10-20T14:19:49.677Z,14.86
2022-10-20T14:22:38.927Z,14.89
2022-10-20T14:25:25.473Z,14.89
2022-10-20T14:28:07.464Z,14.87
2022-10-20T14:30:56.433Z,14.81
2022-10-20T14:33:44.465Z,14.68
2022-10-20T14:36:34.469Z,14.65
2022-10-20T14:39:27.548Z,14.59
2022-10-20T14:42:31.423Z,14.58
2022-10-20T14:45:11.545Z,14.54
2022-10-20T14:47:59.464Z,14.59
2022-10-20T14:50:42.537Z,14.57
2022-10-20T14:53:29.445Z,14.48
2022-10-20T14:56:10.502Z,14.48
2022-10-20T14:59:03.408Z,14.44
2022-10-20T15:01:56.103Z,14.37
2022-10-20T15:04:38.454Z,14.31
2022-10-20T15:07:46.447Z,14.32
2022-10-20T15:10:27.212Z,14.22
2022-10-20T15:27:32.722Z,13.52
2022-10-20T15:30:21.949Z,13.67
2022-10-20T15:33:08.749Z,13.70
2022-10-20T15:35:56.785Z,13.81
2022-10-20T15:38:36.953Z,13.83
2022-10-20T15:41:26.727Z,13.80
2022-10-20T15:44:28.753Z,13.86
2022-10-20T15:47:09.250Z,13.93
2022-10-20T15:49:55.784Z,13.99
2022-10-20T15:52:37.959Z,13.96
2022-10-20T15:55:41.829Z,13.90
2022-10-20T15:58:28.733Z,13.90
2022-10-20T16:01:08.878Z,13.85
2022-10-20T16:03:55.697Z,13.89
2022-10-20T16:06:35.849Z,13.67
2022-10-20T16:09:22.747Z,13.68
2022-10-20T16:12:09.687Z,13.58
2022-10-20T16:14:56.743Z,13.48
2022-10-20T16:17:36.868Z,13.39
2022-10-20T16:20:23.714Z,13.33
2022-10-20T16:23:03.823Z,13.15
2022-10-20T16:25:50.688Z,13.12
2022-10-20T16:28:37.703Z,13.07
2022-10-20T16:31:24.666Z,13.11
2022-10-20T16:34:01.068Z,13.18
2022-10-20T16:36:27.886Z,13.21
2022-10-20T16:38:56.764Z,13.15
2022-10-20T16:41:23.642Z,13.14
2022-10-20T16:43:50.655Z,13.10
2022-10-20T16:46:17.609Z,13.10
2022-10-20T16:48:47.702Z,13.07
2022-10-20T16:51:15.885Z,13.07
2022-10-20T16:53:43.120Z,13.10
2022-10-20T16:56:09.941Z,13.12
2022-10-20T16:58:36.782Z,13.09
2022-10-20T17:01:13.036Z,13.12
2022-10-20T17:03:45.143Z,13.01
2022-10-20T17:06:12.958Z,12.99
2022-10-20T17:08:40.610Z,12.97
2022-10-20T17:11:13.056Z,13.02
2022-10-20T17:13:40.906Z,13.03
2022-10-20T17:16:09.808Z,13.12
2022-10-20T17:18:37.078Z,13.01
2022-10-20T17:21:04.764Z,13.09
2022-10-20T17:23:37.317Z,13.06
2022-10-20T17:26:09.772Z,13.09
2022-10-20T17:28:37.627Z,12.99
2022-10-20T17:31:09.424Z,13.03
2022-10-20T17:33:37.414Z,13.00
2022-10-20T17:36:04.989Z,12.90
2022-10-20T17:38:32.435Z,12.84
2022-10-20T17:41:04.180Z,12.79
2022-10-20T17:43:31.393Z,12.91
2022-10-20T17:46:03.645Z,12.88
2022-10-20T17:48:30.666Z,12.85
2022-10-20T17:51:12.501Z,12.90
2022-10-20T17:53:43.671Z,12.90
2022-10-20T17:56:13.529Z,12.77
2022-10-20T17:58:42.711Z,12.71
2022-10-20T18:01:20.321Z,12.52
2022-10-20T18:03:48.828Z,12.41
2022-10-20T18:06:21.133Z,12.42
2022-10-20T18:08:48.861Z,12.31
2022-10-20T18:11:20.153Z,12.36
2022-10-20T18:13:47.277Z,12.03
2022-10-20T18:16:16.812Z,11.87
2022-10-20T18:18:43.852Z,11.83
2022-10-20T18:21:12.552Z,11.86
2022-10-20T18:23:41.327Z,11.75
2022-10-20T18:26:11.533Z,11.73
2022-10-20T18:28:43.190Z,11.72
2022-10-20T18:31:19.652Z,11.61
2022-10-20T18:33:47.722Z,11.48
2022-10-20T18:36:17.912Z,11.40
2022-10-20T18:38:46.887Z,11.47
2022-10-20T18:41:15.205Z,11.28
2022-10-20T18:43:42.787Z,11.32
2022-10-20T18:46:10.260Z,11.30
2022-10-20T18:48:38.804Z,11.26
2022-10-20T18:51:06.951Z,11.19
2022-10-20T18:53:35.676Z,11.14
2022-10-20T18:56:05.533Z,11.07
2022-10-20T18:58:35.300Z,11.09
2022-10-20T19:01:04.978Z,11.01
2022-10-20T19:03:33.265Z,10.85
2022-10-20T19:06:13.153Z,10.81
2022-10-20T19:08:40.898Z,10.77
2022-10-20T19:11:12.842Z,10.69
2022-10-20T19:13:40.147Z,10.70
2022-10-20T19:16:12.759Z,10.65
2022-10-20T19:18:42.625Z,10.50
2022-10-20T19:21:10.019Z,10.50
2022-10-20T19:23:39.983Z,10.46
2022-10-20T19:26:11.368Z,10.36
2022-10-20T19:28:47.017Z,10.29
2022-10-20T19:31:34.158Z,10.23
2022-10-20T19:34:04.442Z,10.18
2022-10-20T19:36:31.729Z,10.10
2022-10-20T19:38:58.595Z,9.98
2022-10-20T19:41:26.546Z,9.93
2022-10-20T19:43:53.464Z,9.94
2022-10-20T19:46:21.807Z,9.91
2022-10-20T19:48:49.275Z,9.87
2022-10-20T19:51:18.075Z,9.91
2022-10-20T19:53:46.007Z,9.87
2022-10-20T19:56:13.640Z,9.85
2022-10-20T19:58:45.616Z,9.82
2022-10-20T20:01:13.781Z,9.69
2022-10-20T20:03:40.980Z,9.66
2022-10-20T20:06:10.888Z,9.65
2022-10-20T20:08:40.241Z,9.63
2022-10-20T20:11:08.519Z,9.55
2022-10-20T20:13:35.485Z,9.56
2022-10-20T20:16:07.419Z,9.57
2022-10-20T20:18:35.961Z,9.54
2022-10-20T20:21:05.079Z,9.53
2022-10-20T20:23:47.675Z,9.52
2022-10-20T20:26:21.444Z,9.50
2022-10-20T20:28:48.880Z,9.49
2022-10-20T20:31:15.748Z,9.54
2022-10-20T20:33:42.613Z,9.56
2022-10-20T20:36:09.799Z,9.55
2022-10-20T20:38:38.377Z,9.55
2022-10-20T20:41:07.599Z,9.65
2022-10-20T20:43:35.527Z,9.67
2022-10-20T20:46:04.143Z,9.71
2022-10-20T20:48:30.996Z,9.63
2022-10-20T20:50:58.884Z,9.64
2022-10-20T20:53:25.946Z,9.58
2022-10-20T20:55:53.839Z,9.55
2022-10-20T20:58:20.736Z,9.59
2022-10-20T21:00:47.643Z,9.59
2022-10-20T21:03:14.672Z,9.60
2022-10-20T21:05:41.468Z,9.60
2022-10-20T21:08:08.407Z,9.59
2022-10-20T21:10:35.939Z,9.59
2022-10-20T21:13:02.883Z,9.63
2022-10-20T21:15:29.721Z,9.71
2022-10-20T21:17:56.555Z,9.63
2022-10-20T21:20:23.435Z,9.68
2022-10-20T21:22:50.285Z,9.69
2022-10-20T21:25:17.241Z,9.70
2022-10-20T21:27:44.142Z,9.71
2022-10-20T21:30:11.148Z,9.71
2022-10-20T21:32:38.211Z,9.74
2022-10-20T21:35:05.495Z,9.70
2022-10-20T21:37:32.410Z,9.62
2022-10-20T21:39:59.269Z,9.62
2022-10-20T21:42:26.240Z,9.53
2022-10-20T21:44:53.050Z,9.48
2022-10-20T21:47:19.828Z,9.53
2022-10-20T21:49:46.744Z,9.41
2022-10-20T21:52:13.942Z,9.43
2022-10-20T21:54:40.844Z,9.44
2022-10-20T21:57:07.661Z,9.40
2022-10-20T21:59:34.502Z,9.36
2022-10-20T22:02:01.773Z,9.38
2022-10-20T22:04:29.980Z,9.30
2022-10-20T22:06:57.784Z,9.33
2022-10-20T22:09:24.725Z,9.34
2022-10-20T22:11:59.625Z,9.33
2022-10-20T22:14:26.631Z,9.29
2022-10-20T22:16:55.691Z,9.25
2022-10-20T22:19:24.296Z,9.26
2022-10-20T22:21:52.666Z,9.26
2022-10-20T22:24:21.081Z,9.31
2022-10-20T22:26:49.322Z,9.27
2022-10-20T22:29:16.276Z,9.26
2022-10-20T22:31:43.168Z,9.23
2022-10-20T22:34:11.065Z,9.20
2022-10-20T22:36:39.512Z,9.16
2022-10-20T22:39:08.130Z,9.12
2022-10-20T22:41:35.119Z,9.11
2022-10-20T22:44:01.928Z,9.04
2022-10-20T22:46:29.506Z,8.99
2022-10-20T22:51:29.113Z,8.93
2022-10-20T22:53:55.933Z,8.87
2022-10-20T22:56:23.678Z,8.80
2022-10-20T22:58:52.588Z,8.75
2022-10-20T23:01:22.405Z,8.70
2022-10-20T23:03:49.622Z,8.57
2022-10-20T23:06:20.449Z,8.54
2022-10-20T23:08:49.739Z,8.49
2022-10-20T23:11:17.332Z,8.46
2022-10-20T23:13:44.719Z,8.40
2022-10-20T23:16:12.059Z,8.29
2022-10-20T23:18:39.443Z,8.22
2022-10-20T23:21:06.937Z,8.11
2022-10-20T23:23:36.400Z,8.00
2022-10-20T23:26:04.806Z,7.91
2022-10-20T23:28:32.458Z,7.85
2022-10-20T23:31:14.193Z,7.77
2022-10-20T23:33:42.444Z,7.69
2022-10-20T23:36:09.676Z,7.69
2022-10-20T23:38:36.792Z,7.63
2022-10-20T23:41:04.013Z,7.61
2022-10-20T23:43:31.166Z,7.56
2022-10-20T23:45:58.200Z,7.56
2022-10-20T23:48:25.347Z,7.55
2022-10-20T23:50:52.304Z,7.51
2022-10-20T23:53:19.142Z,7.48
2022-10-20T23:55:46.025Z,7.46
2022-10-20T23:58:12.964Z,7.48
